Карточка аэропорта USTR

Внимание!
Информация на этой странице в стадии наполнения.
Если вы не увидели какой-то информации, или заметили неточность - пожалуйста сообщите нам!
Спасибо!
Команда RU-STAFF
Название аэропортаРощино
Название аэропорта (англ.)Roshschino
Превышение378 ft. (115.2 m.)
Координаты57°10.098', 65°19.002'
Высота перехода700m
Эшелон переходаFL040
Коды ответчика5101-5137
Зона ОрВДТюмень РПИ (USTV)
Данные METARUSTR 271930Z 33004MPS 9999 BKN017CB M01/M03 Q1021 R30/290060 R03/290060 TEMPO 1000 SHSN VV002
Проноз погоды (TAF)USTR 271635Z 2718/2818 35005MPS 3100 -SHSN BR FEW007 BKN020CB TEMPO 2718/2803 VRB01MPS 0300 FZFG VV002 BECMG 2804/2805 36006G13MPS 6000 -SHSNRA TEMPO 2805/2812 1000 SHSNRA VV004 FM281600 35004MPS 3100 BR SCT005
NOTAMshow/hide NOTAM
AWOS   TABLE

Информация о ВПП

ВПП Длина ВПП (м.) Покрытие Курс ВПП Частота ILS
033003Асфальтобетон34108.3
122704Асфальтобетон121 
213003Асфальтобетон214110.7
302704Асфальтобетон301 

Диспетчерские позиции

Позывной Наименование органа УВД Частота
USTR_GNDТюмень-Руление119.000
USTR_TWRТюмень-Старт118.200
USTR_R_APPТюмень-Круг126.100



Спутниковое изображение